Time;durP1;ratioP1;P1;durP2;ratioP2;P2;SDS_P1;SDS_P2;PMS_P1;PMS_P2;Temp;Humidity;BMP_temperature;BMP_pressure;BME280_temperature;BME280_humidity;BME280_pressure;Samples;Min_cycle;Max_cycle;Signal;HPM_P1;HPM_P2
2021/10/21 00:01:50;;;;;;;;;;;9.90;92.40;;;;;;5114854;28;19954;-78
2021/10/21 00:04:16;;;;;;;;;;;9.70;92.50;;;;;;5114568;28;19997;-80
2021/10/21 00:06:42;;;;;;;;;;;9.50;92.60;;;;;;5115714;28;19959;-78
2021/10/21 00:09:07;;;;;;;;;;;9.40;92.60;;;;;;5114432;28;19998;-80
2021/10/21 00:11:33;;;;;;;;;;;9.30;92.60;;;;;;5115714;28;19969;-79
2021/10/21 00:13:59;;;;;;;;;;;9.20;92.70;;;;;;5114441;28;19943;-79
2021/10/21 00:16:25;;;;;;;;;;;9.20;92.70;;;;;;5097080;28;20013;-80
2021/10/21 00:18:50;;;;;;;;;;;9.10;92.80;;;;;;5115636;28;20002;-79
2021/10/21 00:21:17;;;;;;;;;;;9.20;92.80;;;;;;5115474;28;19979;-79
2021/10/21 00:23:42;;;;;;;;;;;9.20;92.80;;;;;;5115465;28;19907;-79
2021/10/21 00:26:08;;;;;;;;;;;9.20;92.80;;;;;;5114017;28;19908;-78
2021/10/21 00:28:34;;;;;;;;;;;9.10;92.70;;;;;;5114314;28;20006;-80
2021/10/21 00:31:00;;;;;;;;;;;9.10;92.60;;;;;;5114396;28;19912;-78
2021/10/21 00:33:25;;;;;;;;;;;9.10;92.50;;;;;;5114038;28;19915;-79
2021/10/21 00:35:51;;;;;;;;;;;9.00;92.50;;;;;;5113984;28;20289;-78
2021/10/21 00:38:17;;;;;;;;;;;9.00;92.50;;;;;;5114225;28;19914;-79
2021/10/21 00:40:43;;;;;;;;;;;9.00;92.40;;;;;;5113808;28;19908;-79
2021/10/21 00:43:09;;;;;;;;;;;9.00;92.30;;;;;;5114102;28;19918;-81
2021/10/21 00:45:34;;;;;;;;;;;9.00;92.20;;;;;;5113882;28;19950;-79
2021/10/21 00:48:00;;;;;;;;;;;9.00;92.10;;;;;;5115027;28;19908;-78
2021/10/21 00:50:26;;;;;;;;;;;8.90;92.00;;;;;;5115014;28;20417;-78
2021/10/21 00:52:52;;;;;;;;;;;8.90;92.00;;;;;;5114894;28;19973;-79
2021/10/21 00:55:18;;;;;;;;;;;8.90;92.00;;;;;;5113489;28;19903;-78
2021/10/21 00:57:43;;;;;;;;;;;8.80;91.90;;;;;;5113731;28;20277;-78
2021/10/21 01:00:09;;;;;;;;;;;8.80;91.90;;;;;;5113343;28;19919;-79
2021/10/21 01:02:35;;;;;;;;;;;8.80;91.90;;;;;;5113336;28;20015;-79
2021/10/21 01:05:01;;;;;;;;;;;8.80;91.80;;;;;;5113302;28;20319;-80
2021/10/21 01:07:26;;;;;;;;;;;8.70;91.80;;;;;;5113321;28;19922;-79
2021/10/21 01:09:52;;;;;;;;;;;8.70;91.80;;;;;;5114720;28;19903;-80
2021/10/21 01:12:18;;;;;;;;;;;8.60;91.70;;;;;;5114964;28;20019;-79
2021/10/21 01:14:45;;;;;;;;;;;8.60;91.70;;;;;;5113193;28;20003;-79
2021/10/21 01:17:17;;;;;;;;;;;8.50;91.70;;;;;;5096369;28;19912;-78
2021/10/21 01:19:42;;;;;;;;;;;8.50;91.70;;;;;;5114465;28;19907;-79
2021/10/21 01:22:08;;;;;;;;;;;8.50;91.70;;;;;;5114266;28;19915;-78
2021/10/21 01:24:34;;;;;;;;;;;8.40;91.70;;;;;;5095993;28;19984;-78
2021/10/21 01:26:59;;;;;;;;;;;8.40;91.70;;;;;;5112918;28;19908;-79
2021/10/21 01:29:25;;;;;;;;;;;8.40;91.70;;;;;;5095966;28;20320;-79
2021/10/21 01:31:52;;;;;;;;;;;8.30;91.70;;;;;;5112773;28;19994;-78
2021/10/21 01:34:18;;;;;;;;;;;8.30;91.70;;;;;;5112911;28;19950;-78
2021/10/21 01:36:48;;;;;;;;;;;8.30;91.70;;;;;;5114212;28;19935;-79
2021/10/21 01:39:13;;;;;;;;;;;8.20;91.70;;;;;;5113911;28;19904;-79
2021/10/21 01:41:39;;;;;;;;;;;8.20;91.70;;;;;;5113917;28;19908;-79
2021/10/21 01:44:05;;;;;;;;;;;8.20;91.70;;;;;;5095639;28;19907;-79
2021/10/21 01:46:31;;;;;;;;;;;8.10;91.70;;;;;;5113822;28;19953;-79
2021/10/21 01:48:56;;;;;;;;;;;8.10;91.70;;;;;;5112545;28;19911;-79
2021/10/21 01:51:22;;;;;;;;;;;8.00;91.70;;;;;;5095516;28;19993;-79
2021/10/21 01:53:47;;;;;;;;;;;8.00;91.70;;;;;;5113936;28;19904;-78
2021/10/21 01:56:13;;;;;;;;;;;8.00;91.70;;;;;;5113705;28;19903;-78
2021/10/21 01:58:39;;;;;;;;;;;8.00;91.70;;;;;;5113780;28;19912;-79
2021/10/21 02:01:05;;;;;;;;;;;7.90;91.70;;;;;;5112032;28;20301;-79
2021/10/21 02:03:30;;;;;;;;;;;7.90;91.70;;;;;;5112338;28;20010;-79
2021/10/21 02:05:56;;;;;;;;;;;7.90;91.60;;;;;;5112199;28;19915;-79
2021/10/21 02:08:21;;;;;;;;;;;7.90;91.60;;;;;;5113336;28;19907;-79
2021/10/21 02:10:47;;;;;;;;;;;7.90;91.70;;;;;;5113460;28;19914;-79
2021/10/21 02:13:13;;;;;;;;;;;7.80;91.70;;;;;;5113316;28;19949;-80
2021/10/21 02:15:39;;;;;;;;;;;7.80;91.70;;;;;;5111323;28;19964;-78
2021/10/21 02:18:05;;;;;;;;;;;7.80;91.70;;;;;;5112005;28;20358;-79
2021/10/21 02:20:30;;;;;;;;;;;7.80;91.70;;;;;;5113207;28;19971;-77
2021/10/21 02:22:56;;;;;;;;;;;7.80;91.70;;;;;;5112005;28;19957;-78
2021/10/21 02:25:22;;;;;;;;;;;7.70;91.60;;;;;;5113182;28;19904;-78
2021/10/21 02:27:47;;;;;;;;;;;7.70;91.70;;;;;;5111715;28;20270;-77
2021/10/21 02:30:14;;;;;;;;;;;7.70;91.70;;;;;;5111676;28;19910;-78
2021/10/21 02:32:40;;;;;;;;;;;7.70;91.60;;;;;;5111845;28;19934;-79
2021/10/21 02:35:07;;;;;;;;;;;7.70;91.60;;;;;;5112890;28;19903;-78
2021/10/21 02:37:34;;;;;;;;;;;7.70;91.60;;;;;;5113128;28;19904;-78
2021/10/21 02:39:59;;;;;;;;;;;7.60;91.60;;;;;;5111510;28;19911;-78
2021/10/21 02:42:25;;;;;;;;;;;7.60;91.60;;;;;;5111616;28;19904;-79
2021/10/21 02:44:50;;;;;;;;;;;7.60;91.50;;;;;;5111337;28;19911;-77
2021/10/21 02:47:16;;;;;;;;;;;7.60;91.50;;;;;;5112779;28;19908;-79
2021/10/21 02:49:41;;;;;;;;;;;7.60;91.50;;;;;;5112696;28;19912;-78
2021/10/21 02:52:07;;;;;;;;;;;7.60;91.50;;;;;;5112746;28;19914;-79
2021/10/21 02:54:33;;;;;;;;;;;7.60;91.50;;;;;;5094272;28;19991;-77
2021/10/21 02:56:59;;;;;;;;;;;7.50;91.40;;;;;;5112700;28;19916;-77
2021/10/21 02:59:24;;;;;;;;;;;7.50;91.40;;;;;;5112334;28;19916;-78
2021/10/21 03:01:50;;;;;;;;;;;7.50;91.40;;;;;;5093386;28;19908;-78
2021/10/21 03:04:16;;;;;;;;;;;7.50;91.40;;;;;;5110675;28;20242;-79
2021/10/21 03:06:41;;;;;;;;;;;7.50;91.40;;;;;;5110244;28;19907;-78
2021/10/21 03:09:07;;;;;;;;;;;7.40;91.40;;;;;;5110156;28;20011;-77
2021/10/21 03:11:32;;;;;;;;;;;7.40;91.40;;;;;;5111626;28;19949;-78
2021/10/21 03:13:58;;;;;;;;;;;7.40;91.40;;;;;;5111702;28;19911;-77
2021/10/21 03:16:29;;;;;;;;;;;7.40;91.40;;;;;;5111514;28;19911;-77
2021/10/21 03:18:54;;;;;;;;;;;7.40;91.40;;;;;;5111580;28;20216;-79
2021/10/21 03:21:20;;;;;;;;;;;7.40;91.40;;;;;;5093412;28;19907;-78
2021/10/21 03:23:46;;;;;;;;;;;7.40;91.40;;;;;;5111498;28;19910;-79
2021/10/21 03:26:11;;;;;;;;;;;7.30;91.30;;;;;;5111119;28;19907;-78
2021/10/21 03:28:37;;;;;;;;;;;7.30;91.30;;;;;;5109389;28;19919;-79
2021/10/21 03:31:03;;;;;;;;;;;7.30;91.30;;;;;;5111506;28;20269;-78
2021/10/21 03:33:28;;;;;;;;;;;7.30;91.30;;;;;;5110131;28;19911;-79
2021/10/21 03:35:54;;;;;;;;;;;7.30;91.40;;;;;;5093057;28;19907;-78
2021/10/21 03:38:19;;;;;;;;;;;7.20;91.30;;;;;;5111252;28;19908;-78
2021/10/21 03:40:45;;;;;;;;;;;7.20;91.50;;;;;;5109833;28;20006;-78
2021/10/21 03:43:10;;;;;;;;;;;7.20;91.40;;;;;;5111244;28;20354;-77
2021/10/21 03:45:36;;;;;;;;;;;7.20;91.40;;;;;;5109874;28;19907;-78
2021/10/21 03:48:01;;;;;;;;;;;7.20;91.40;;;;;;5111146;28;19919;-78
2021/10/21 03:50:29;;;;;;;;;;;7.20;91.40;;;;;;5109867;28;19908;-78
2021/10/21 03:52:54;;;;;;;;;;;7.20;91.40;;;;;;5109733;28;19908;-79
2021/10/21 03:55:20;;;;;;;;;;;7.20;91.40;;;;;;5109662;28;20310;-79
2021/10/21 03:57:46;;;;;;;;;;;7.10;91.30;;;;;;5111064;28;20358;-77
2021/10/21 04:00:12;;;;;;;;;;;7.10;91.30;;;;;;5066451;28;1242703;-77
2021/10/21 04:02:38;;;;;;;;;;;7.10;91.30;;;;;;5110562;28;20277;-77
2021/10/21 04:05:04;;;;;;;;;;;7.10;91.30;;;;;;5110464;28;19912;-78
2021/10/21 04:07:30;;;;;;;;;;;7.10;91.30;;;;;;5110512;28;19912;-78
2021/10/21 04:09:55;;;;;;;;;;;7.10;91.30;;;;;;5110581;28;19915;-78
2021/10/21 04:12:21;;;;;;;;;;;7.10;91.40;;;;;;5112307;28;19911;-77
2021/10/21 04:14:46;;;;;;;;;;;7.00;91.40;;;;;;5111683;28;19911;-78
2021/10/21 04:17:12;;;;;;;;;;;7.10;91.40;;;;;;5111731;28;19910;-79
2021/10/21 04:19:37;;;;;;;;;;;7.10;91.40;;;;;;5111699;28;19934;-79
2021/10/21 04:22:03;;;;;;;;;;;7.10;91.40;;;;;;5111671;28;20394;-77
2021/10/21 04:24:28;;;;;;;;;;;7.00;91.40;;;;;;5110425;28;20353;-77
2021/10/21 04:26:54;;;;;;;;;;;7.00;91.40;;;;;;5093341;28;20008;-78
2021/10/21 04:29:19;;;;;;;;;;;7.00;91.40;;;;;;5111548;28;20381;-78
2021/10/21 04:31:45;;;;;;;;;;;7.00;91.40;;;;;;5111637;28;20323;-77
2021/10/21 04:34:12;;;;;;;;;;;7.00;91.40;;;;;;5110426;28;19911;-78
2021/10/21 04:36:38;;;;;;;;;;;7.00;91.40;;;;;;5110378;28;19908;-78
2021/10/21 04:39:04;;;;;;;;;;;7.00;91.50;;;;;;5112439;28;20310;-77
2021/10/21 04:41:29;;;;;;;;;;;7.00;91.40;;;;;;5115159;28;19957;-78
2021/10/21 04:43:55;;;;;;;;;;;7.00;91.40;;;;;;5115207;28;19990;-79
2021/10/21 04:46:21;;;;;;;;;;;7.00;91.40;;;;;;5113939;28;19952;-78
2021/10/21 04:48:46;;;;;;;;;;;7.00;91.40;;;;;;5113685;28;19912;-78
2021/10/21 04:51:12;;;;;;;;;;;6.90;91.40;;;;;;5113826;28;19931;-78
2021/10/21 04:53:38;;;;;;;;;;;6.90;91.40;;;;;;5097101;28;19951;-79
2021/10/21 04:56:03;;;;;;;;;;;6.90;91.40;;;;;;5096734;28;19907;-79
2021/10/21 04:58:29;;;;;;;;;;;6.90;91.40;;;;;;5113764;28;19912;-78
2021/10/21 05:00:54;;;;;;;;;;;6.90;91.40;;;;;;5114781;28;19931;-79
2021/10/21 05:03:20;;;;;;;;;;;6.90;91.40;;;;;;5114849;28;19994;-79
2021/10/21 05:05:46;;;;;;;;;;;6.90;91.40;;;;;;5113392;28;19911;-77
2021/10/21 05:08:11;;;;;;;;;;;6.90;91.40;;;;;;5113407;28;19911;-78
2021/10/21 05:10:37;;;;;;;;;;;6.90;91.40;;;;;;5114719;28;19942;-77
2021/10/21 05:13:02;;;;;;;;;;;6.90;91.40;;;;;;5114351;28;19907;-79
2021/10/21 05:15:29;;;;;;;;;;;6.90;91.40;;;;;;5113049;28;19949;-79
2021/10/21 05:17:54;;;;;;;;;;;6.90;91.50;;;;;;5114315;28;20410;-78
2021/10/21 05:20:20;;;;;;;;;;;6.90;91.40;;;;;;5113057;28;20006;-78
2021/10/21 05:22:46;;;;;;;;;;;6.90;91.40;;;;;;5114372;28;19908;-79
2021/10/21 05:25:11;;;;;;;;;;;6.80;91.40;;;;;;5112384;28;19972;-78
2021/10/21 05:27:38;;;;;;;;;;;6.80;91.40;;;;;;5112732;28;20018;-79
2021/10/21 05:30:07;;;;;;;;;;;6.80;91.30;;;;;;5112750;28;20006;-78
2021/10/21 05:32:33;;;;;;;;;;;6.80;91.30;;;;;;5114173;28;19998;-79
2021/10/21 05:34:58;;;;;;;;;;;6.80;91.30;;;;;;5113985;28;20014;-77
2021/10/21 05:37:24;;;;;;;;;;;6.80;91.30;;;;;;5112911;28;20002;-79
2021/10/21 05:39:49;;;;;;;;;;;6.70;91.30;;;;;;5112952;28;19914;-78
2021/10/21 05:42:15;;;;;;;;;;;6.70;91.30;;;;;;5113894;28;19914;-78
2021/10/21 05:44:40;;;;;;;;;;;6.70;91.30;;;;;;5112438;28;19908;-79
2021/10/21 05:47:06;;;;;;;;;;;6.60;91.30;;;;;;5113657;28;19908;-78
2021/10/21 05:49:32;;;;;;;;;;;6.60;91.30;;;;;;5111766;28;19908;-77
2021/10/21 05:51:57;;;;;;;;;;;6.60;91.30;;;;;;5113742;28;19908;-77
2021/10/21 05:54:23;;;;;;;;;;;6.60;91.30;;;;;;5112253;28;20006;-79
2021/10/21 05:56:49;;;;;;;;;;;6.60;91.30;;;;;;5095136;28;19919;-77
2021/10/21 05:59:15;;;;;;;;;;;6.60;91.40;;;;;;5112070;28;19958;-78
2021/10/21 06:01:40;;;;;;;;;;;6.60;91.40;;;;;;5112214;28;19914;-78
2021/10/21 06:04:06;;;;;;;;;;;6.60;91.40;;;;;;5112426;28;19907;-78
2021/10/21 06:06:34;;;;;;;;;;;6.60;91.40;;;;;;5111805;28;19997;-73
2021/10/21 06:09:02;;;;;;;;;;;6.60;91.40;;;;;;5111645;28;19911;-78
2021/10/21 06:11:29;;;;;;;;;;;6.60;91.40;;;;;;5113266;28;19904;-76
2021/10/21 06:13:54;;;;;;;;;;;6.60;91.40;;;;;;5111668;28;19941;-77
2021/10/21 06:16:20;;;;;;;;;;;6.60;91.40;;;;;;5113929;28;19996;-75
2021/10/21 06:18:45;;;;;;;;;;;6.60;91.40;;;;;;5113654;28;19908;-77
2021/10/21 06:21:12;;;;;;;;;;;6.60;91.50;;;;;;5111782;28;20000;-77
2021/10/21 06:23:38;;;;;;;;;;;6.70;91.40;;;;;;5095123;28;20349;-78
2021/10/21 06:26:03;;;;;;;;;;;6.70;91.40;;;;;;5111616;28;19915;-78
2021/10/21 06:28:29;;;;;;;;;;;6.70;91.40;;;;;;5112715;28;19942;-78
2021/10/21 06:30:55;;;;;;;;;;;6.70;91.60;;;;;;5111656;28;20375;-78
2021/10/21 06:33:21;;;;;;;;;;;6.70;91.30;;;;;;5111775;28;20277;-78
2021/10/21 06:35:47;;;;;;;;;;;6.70;91.30;;;;;;5111575;28;19911;-78
2021/10/21 06:38:14;;;;;;;;;;;6.70;91.30;;;;;;5094377;28;19907;-77
2021/10/21 06:40:39;;;;;;;;;;;6.70;91.30;;;;;;5111778;28;20072;-77
2021/10/21 06:43:05;;;;;;;;;;;6.60;91.30;;;;;;5113428;28;20001;-78
2021/10/21 06:45:31;;;;;;;;;;;6.60;91.30;;;;;;5111523;28;19955;-78
2021/10/21 06:47:57;;;;;;;;;;;6.60;91.30;;;;;;5112429;28;19998;-77
2021/10/21 06:50:23;;;;;;;;;;;6.60;91.30;;;;;;5113586;28;20552;-78
2021/10/21 06:52:49;;;;;;;;;;;6.60;91.30;;;;;;5112300;28;19908;-78
2021/10/21 06:55:15;;;;;;;;;;;6.60;91.40;;;;;;5111058;28;19930;-78
2021/10/21 06:57:45;;;;;;;;;;;6.60;91.40;;;;;;5111059;28;19903;-78
2021/10/21 07:00:10;;;;;;;;;;;6.60;91.30;;;;;;5109572;28;19919;-77
2021/10/21 07:02:36;;;;;;;;;;;6.60;91.30;;;;;;5111823;28;19935;-77
2021/10/21 07:05:01;;;;;;;;;;;6.60;91.30;;;;;;5111102;28;19915;-76
2021/10/21 07:07:27;;;;;;;;;;;6.60;91.30;;;;;;5112247;28;19922;-78
2021/10/21 07:09:53;;;;;;;;;;;6.60;91.30;;;;;;5111996;28;19915;-79
2021/10/21 07:12:19;;;;;;;;;;;6.60;91.30;;;;;;5110797;28;20275;-77
2021/10/21 07:14:44;;;;;;;;;;;6.60;91.40;;;;;;5112211;28;19916;-78
2021/10/21 07:17:10;;;;;;;;;;;6.60;91.40;;;;;;5112249;28;19961;-78
2021/10/21 07:19:35;;;;;;;;;;;6.60;91.40;;;;;;5112042;28;19912;-78
2021/10/21 07:22:01;;;;;;;;;;;6.70;91.40;;;;;;5110578;28;19946;-78
2021/10/21 07:24:28;;;;;;;;;;;6.70;91.40;;;;;;5110359;28;19908;-78
2021/10/21 07:26:53;;;;;;;;;;;6.70;91.40;;;;;;5093761;28;19907;-78
2021/10/21 07:29:19;;;;;;;;;;;6.80;91.50;;;;;;5110126;28;19995;-78
2021/10/21 07:31:44;;;;;;;;;;;6.80;91.50;;;;;;5110539;28;19908;-78
2021/10/21 07:34:10;;;;;;;;;;;6.90;91.50;;;;;;5112138;28;19918;-79
2021/10/21 07:36:35;;;;;;;;;;;6.90;91.50;;;;;;5094490;28;19908;-79
2021/10/21 07:39:01;;;;;;;;;;;7.00;91.50;;;;;;5110404;28;19960;-78
2021/10/21 07:41:27;;;;;;;;;;;7.10;91.60;;;;;;5110873;28;19914;-78
2021/10/21 07:43:53;;;;;;;;;;;7.20;91.60;;;;;;5111647;28;20481;-78
2021/10/21 07:46:19;;;;;;;;;;;7.30;91.60;;;;;;5112031;28;20398;-79
2021/10/21 07:48:45;;;;;;;;;;;7.40;91.50;;;;;;5111262;28;19965;-79
2021/10/21 07:51:10;;;;;;;;;;;7.40;91.40;;;;;;5111810;28;19960;-78
2021/10/21 07:53:36;;;;;;;;;;;7.40;91.40;;;;;;5109792;28;20416;-78
2021/10/21 07:56:02;;;;;;;;;;;7.40;91.40;;;;;;5109658;28;19915;-78
2021/10/21 07:58:27;;;;;;;;;;;7.50;91.40;;;;;;5093007;28;19922;-79
2021/10/21 08:00:53;;;;;;;;;;;7.60;91.70;;;;;;5108722;28;19923;-78
2021/10/21 08:03:19;;;;;;;;;;;7.80;91.70;;;;;;5089618;28;20018;-78
2021/10/21 08:05:44;;;;;;;;;;;7.90;91.60;;;;;;5106339;28;19908;-78
2021/10/21 08:08:10;;;;;;;;;;;8.00;91.60;;;;;;5107703;28;20349;-79
2021/10/21 08:10:36;;;;;;;;;;;8.10;91.60;;;;;;5107963;28;20334;-79
2021/10/21 08:13:02;;;;;;;;;;;8.20;91.60;;;;;;5107467;28;20326;-78
2021/10/21 08:15:28;;;;;;;;;;;8.30;91.50;;;;;;5110227;28;19946;-78
2021/10/21 08:17:54;;;;;;;;;;;8.30;91.40;;;;;;5110632;28;19911;-79
2021/10/21 08:20:20;;;;;;;;;;;8.40;91.40;;;;;;5110215;28;19908;-76
2021/10/21 08:22:46;;;;;;;;;;;8.40;91.40;;;;;;5111461;28;19904;-77
2021/10/21 08:25:13;;;;;;;;;;;8.50;91.50;;;;;;5111553;28;19907;-78
2021/10/21 08:27:39;;;;;;;;;;;8.60;91.50;;;;;;5109903;28;20330;-78
2021/10/21 08:30:06;;;;;;;;;;;8.70;91.50;;;;;;5110162;28;19950;-77
2021/10/21 08:32:31;;;;;;;;;;;9.10;92.20;;;;;;5111088;28;19908;-78
2021/10/21 08:34:57;;;;;;;;;;;10.00;92.70;;;;;;5111108;28;19915;-78
2021/10/21 08:37:23;;;;;;;;;;;11.10;92.90;;;;;;5110225;28;19915;-78
2021/10/21 08:39:49;;;;;;;;;;;12.00;92.60;;;;;;5093007;28;20285;-77
2021/10/21 08:42:16;;;;;;;;;;;13.00;91.90;;;;;;5110041;28;19907;-78
2021/10/21 08:44:42;;;;;;;;;;;13.90;91.80;;;;;;5111353;28;19910;-79
2021/10/21 08:47:08;;;;;;;;;;;14.70;91.50;;;;;;5112003;28;20285;-78
2021/10/21 08:49:35;;;;;;;;;;;15.30;91.30;;;;;;5109447;28;19911;-76
2021/10/21 08:52:05;;;;;;;;;;;16.00;90.60;;;;;;5111320;28;20250;-78
2021/10/21 08:54:30;;;;;;;;;;;16.30;89.20;;;;;;5111827;28;20330;-77
2021/10/21 08:56:56;;;;;;;;;;;16.70;89.00;;;;;;5112760;28;19910;-79
2021/10/21 08:59:22;;;;;;;;;;;16.80;87.10;;;;;;5111905;28;19904;-78
2021/10/21 09:01:51;;;;;;;;;;;16.70;86.20;;;;;;5093755;28;19922;-77
2021/10/21 09:09:33;;;;;;;;;;;17.90;87.40;;;;;;5105429;28;19915;-77
2021/10/21 09:12:05;;;;;;;;;;;18.40;87.60;;;;;;5102071;28;19912;-77
2021/10/21 09:14:34;;;;;;;;;;;18.80;85.60;;;;;;5107692;28;20295;-80
2021/10/21 09:17:01;;;;;;;;;;;19.10;84.60;;;;;;5111229;28;19904;-77
2021/10/21 09:19:30;;;;;;;;;;;19.40;84.60;;;;;;5099284;28;19911;-78
2021/10/21 09:21:55;;;;;;;;;;;19.50;83.70;;;;;;5093468;28;19991;-79
2021/10/21 09:24:22;;;;;;;;;;;19.70;83.30;;;;;;5096821;28;19996;-77
2021/10/21 09:27:01;;;;;;;;;;;20.00;82.00;;;;;;5108223;28;20006;-75
2021/10/21 09:29:27;;;;;;;;;;;20.20;81.70;;;;;;5094513;28;19908;-75
2021/10/21 09:32:05;;;;;;;;;;;20.50;81.90;;;;;;5105557;28;19914;-78
2021/10/21 09:34:31;;;;;;;;;;;20.70;82.80;;;;;;5095391;28;19910;-78
2021/10/21 09:37:04;;;;;;;;;;;21.00;83.50;;;;;;5100774;28;19987;-79
2021/10/21 09:39:47;;;;;;;;;;;21.20;83.50;;;;;;5106961;28;19904;-78
2021/10/21 09:42:13;;;;;;;;;;;21.50;84.10;;;;;;5091725;28;19915;-78
2021/10/21 09:44:40;;;;;;;;;;;21.70;84.40;;;;;;5097321;28;19933;-79
2021/10/21 09:47:20;;;;;;;;;;;22.10;84.50;;;;;;5110267;28;19910;-78
2021/10/21 09:49:47;;;;;;;;;;;22.50;84.50;;;;;;5091185;28;20426;-78
2021/10/21 09:52:20;;;;;;;;;;;22.90;81.90;;;;;;5103062;28;19911;-79
2021/10/21 09:54:46;;;;;;;;;;;23.00;82.50;;;;;;5104080;28;19907;-78
2021/10/21 09:57:18;;;;;;;;;;;23.30;83.40;;;;;;5092438;28;19919;-78
2021/10/21 10:00:04;;;;;;;;;;;23.50;82.80;;;;;;5086449;28;20363;-80
2021/10/21 10:02:32;;;;;;;;;;;23.80;82.00;;;;;;5095689;28;19949;-80
2021/10/21 10:04:57;;;;;;;;;;;24.10;81.30;;;;;;5098073;28;19972;-78
2021/10/21 10:07:25;;;;;;;;;;;24.20;80.00;;;;;;5098808;28;19940;-76
2021/10/21 10:09:51;;;;;;;;;;;24.30;77.30;;;;;;5100459;28;20300;-77
2021/10/21 10:12:18;;;;;;;;;;;24.30;76.20;;;;;;5101690;28;19908;-74
2021/10/21 10:15:12;;;;;;;;;;;24.20;74.60;;;;;;5099606;28;20273;-75
2021/10/21 10:17:38;;;;;;;;;;;24.10;74.30;;;;;;5068216;28;19905;-75
2021/10/21 10:20:03;;;;;;;;;;;24.00;73.20;;;;;;5039335;28;19921;-74
2021/10/21 10:22:31;;;;;;;;;;;24.00;72.30;;;;;;5094859;28;19912;-76
2021/10/21 10:24:57;;;;;;;;;;;23.90;72.70;;;;;;5097083;28;20551;-74
2021/10/21 10:27:28;;;;;;;;;;;23.90;72.50;;;;;;5098096;28;19931;-73
2021/10/21 10:29:54;;;;;;;;;;;24.00;72.10;;;;;;5098342;28;19904;-77
2021/10/21 10:32:34;;;;;;;;;;;24.10;71.20;;;;;;5083397;28;20006;-77
2021/10/21 10:35:01;;;;;;;;;;;24.30;71.10;;;;;;5096869;28;19962;-77
2021/10/21 10:37:27;;;;;;;;;;;24.30;68.80;;;;;;5089933;28;19942;-80
2021/10/21 10:39:53;;;;;;;;;;;24.40;71.10;;;;;;5100709;28;19954;-77
2021/10/21 10:42:28;;;;;;;;;;;24.60;70.80;;;;;;5094681;28;20370;-79
2021/10/21 10:44:54;;;;;;;;;;;24.80;70.70;;;;;;5100635;28;19928;-79
2021/10/21 10:47:37;;;;;;;;;;;25.10;70.60;;;;;;5102283;28;20006;-77
2021/10/21 10:50:25;;;;;;;;;;;25.20;70.90;;;;;;5103163;28;19904;-79
2021/10/21 10:52:58;;;;;;;;;;;25.30;70.30;;;;;;5094465;28;19912;-78
2021/10/21 10:55:27;;;;;;;;;;;25.30;67.30;;;;;;5096878;28;19904;-75
2021/10/21 10:57:53;;;;;;;;;;;25.20;67.30;;;;;;5097295;28;19904;-77
2021/10/21 11:00:35;;;;;;;;;;;25.20;65.90;;;;;;5094868;28;20403;-77
2021/10/21 11:03:00;;;;;;;;;;;25.10;66.90;;;;;;5098989;28;19935;-77
2021/10/21 11:05:45;;;;;;;;;;;25.10;67.20;;;;;;5109420;28;20456;-77
2021/10/21 11:08:15;;;;;;;;;;;25.00;64.10;;;;;;5110845;28;19962;-75
2021/10/21 11:10:45;;;;;;;;;;;24.70;64.30;;;;;;5112680;28;19918;-76
2021/10/21 11:13:17;;;;;;;;;;;24.50;65.80;;;;;;5112387;28;19903;-77
2021/10/21 11:15:43;;;;;;;;;;;24.60;67.00;;;;;;5110915;28;19907;-76
2021/10/21 11:18:09;;;;;;;;;;;24.80;66.30;;;;;;5109979;28;19908;-77
2021/10/21 11:20:34;;;;;;;;;;;24.80;65.40;;;;;;5106658;28;20352;-79
2021/10/21 11:23:01;;;;;;;;;;;24.90;65.60;;;;;;5099327;28;19907;-77
2021/10/21 11:25:28;;;;;;;;;;;25.00;64.80;;;;;;5105135;28;20455;-77
2021/10/21 11:27:53;;;;;;;;;;;24.90;64.50;;;;;;5097085;28;19908;-76
2021/10/21 11:30:23;;;;;;;;;;;24.80;64.00;;;;;;5110072;28;19912;-77
2021/10/21 11:32:48;;;;;;;;;;;24.80;64.30;;;;;;5110502;28;19916;-79
2021/10/21 11:35:27;;;;;;;;;;;24.60;63.30;;;;;;5091347;28;19908;-77
2021/10/21 11:37:57;;;;;;;;;;;24.50;63.30;;;;;;5110287;28;19904;-75
2021/10/21 11:40:29;;;;;;;;;;;24.40;63.00;;;;;;5108423;28;20548;-77
2021/10/21 11:42:59;;;;;;;;;;;24.40;63.60;;;;;;5109931;28;20331;-81
2021/10/21 11:45:25;;;;;;;;;;;24.30;63.70;;;;;;5109512;28;19914;-72
2021/10/21 11:47:55;;;;;;;;;;;24.00;63.10;;;;;;5109936;28;19912;-76
2021/10/21 11:50:28;;;;;;;;;;;23.50;63.10;;;;;;5114092;28;19907;-80
2021/10/21 11:52:55;;;;;;;;;;;23.40;63.60;;;;;;5112526;28;19926;-77
2021/10/21 11:55:26;;;;;;;;;;;23.70;64.00;;;;;;5114334;28;20303;-77
2021/10/21 11:57:51;;;;;;;;;;;23.80;63.40;;;;;;5114055;28;19928;-80
2021/10/21 12:00:24;;;;;;;;;;;23.90;62.40;;;;;;5113441;28;19919;-74
2021/10/21 12:02:50;;;;;;;;;;;24.00;63.20;;;;;;5114022;28;19903;-78
2021/10/21 12:05:16;;;;;;;;;;;23.80;61.20;;;;;;5114290;28;20281;-78
2021/10/21 12:07:42;;;;;;;;;;;23.40;61.90;;;;;;5112515;28;20013;-75
2021/10/21 12:10:08;;;;;;;;;;;23.10;62.40;;;;;;5112418;28;19912;-78
2021/10/21 12:12:44;;;;;;;;;;;22.90;61.60;;;;;;5112542;28;19916;-79
2021/10/21 12:15:10;;;;;;;;;;;22.80;61.80;;;;;;5111936;28;19908;-76
2021/10/21 12:17:36;;;;;;;;;;;22.50;61.40;;;;;;5113615;28;19919;-79
2021/10/21 12:20:02;;;;;;;;;;;22.40;60.60;;;;;;5112050;28;19913;-79
2021/10/21 12:22:30;;;;;;;;;;;22.00;60.60;;;;;;5112209;28;19907;-78
2021/10/21 12:24:55;;;;;;;;;;;21.60;60.40;;;;;;5113583;28;20629;-76
2021/10/21 12:27:22;;;;;;;;;;;21.20;59.50;;;;;;5113365;28;19907;-76
2021/10/21 12:29:47;;;;;;;;;;;20.70;58.90;;;;;;5113381;28;19912;-81
2021/10/21 12:32:21;;;;;;;;;;;20.40;60.10;;;;;;5112810;28;19914;-81
2021/10/21 12:34:47;;;;;;;;;;;20.50;61.10;;;;;;5095789;28;20496;-74
2021/10/21 12:37:16;;;;;;;;;;;20.70;61.50;;;;;;5097565;28;19910;-79
2021/10/21 12:39:42;;;;;;;;;;;20.80;61.00;;;;;;5099129;28;19998;-80
2021/10/21 12:42:09;;;;;;;;;;;20.70;61.00;;;;;;5099227;28;20369;-79
2021/10/21 12:44:38;;;;;;;;;;;20.30;61.50;;;;;;5108210;28;20323;-76
2021/10/21 12:47:22;;;;;;;;;;;20.10;62.40;;;;;;5092320;28;20055;-77
2021/10/21 12:49:55;;;;;;;;;;;20.30;63.60;;;;;;5092572;28;19951;-75
2021/10/21 12:52:30;;;;;;;;;;;20.20;63.30;;;;;;5091626;28;19950;-78
2021/10/21 12:55:12;;;;;;;;;;;20.20;61.70;;;;;;5092431;28;19943;-80
2021/10/21 12:57:47;;;;;;;;;;;20.00;61.30;;;;;;5097973;28;20302;-79
2021/10/21 13:00:13;;;;;;;;;;;19.80;61.60;;;;;;5102218;28;20002;-78
2021/10/21 13:02:39;;;;;;;;;;;19.90;61.90;;;;;;5092716;28;19929;-79
2021/10/21 13:05:05;;;;;;;;;;;20.20;61.00;;;;;;5099634;28;20414;-80
2021/10/21 13:07:31;;;;;;;;;;;20.60;62.00;;;;;;5107330;28;19904;-79
2021/10/21 13:09:56;;;;;;;;;;;21.10;62.10;;;;;;5106638;28;20012;-79
2021/10/21 13:12:23;;;;;;;;;;;21.30;61.60;;;;;;5107318;28;19908;-76
2021/10/21 13:14:49;;;;;;;;;;;21.10;60.70;;;;;;5093429;28;20329;-77
2021/10/21 13:17:15;;;;;;;;;;;20.80;60.50;;;;;;5106546;28;20346;-77
2021/10/21 13:19:41;;;;;;;;;;;20.70;60.70;;;;;;5097423;28;19938;-78
2021/10/21 13:22:06;;;;;;;;;;;20.30;60.40;;;;;;5105499;28;20321;-78
2021/10/21 13:24:33;;;;;;;;;;;19.70;60.80;;;;;;5086039;28;20018;-76
2021/10/21 13:26:59;;;;;;;;;;;19.50;62.10;;;;;;5100539;28;19927;-78
2021/10/21 13:29:25;;;;;;;;;;;19.50;62.40;;;;;;5103128;28;19908;-73
2021/10/21 13:31:51;;;;;;;;;;;19.40;61.90;;;;;;5097188;28;19931;-78
2021/10/21 13:34:17;;;;;;;;;;;19.00;61.70;;;;;;5106457;28;19904;-78
2021/10/21 13:36:43;;;;;;;;;;;18.50;61.50;;;;;;5109697;28;19920;-76
2021/10/21 13:39:08;;;;;;;;;;;18.10;61.20;;;;;;5108147;28;19923;-78
2021/10/21 13:41:34;;;;;;;;;;;17.90;61.80;;;;;;5100470;28;19950;-80
2021/10/21 13:43:59;;;;;;;;;;;17.90;62.60;;;;;;5098708;28;19904;-80
2021/10/21 13:46:25;;;;;;;;;;;18.40;62.40;;;;;;5096794;28;19924;-80
2021/10/21 13:48:53;;;;;;;;;;;18.70;62.00;;;;;;5103890;28;19912;-79
2021/10/21 13:51:19;;;;;;;;;;;18.90;60.70;;;;;;5090700;28;19922;-78
2021/10/21 13:53:44;;;;;;;;;;;18.80;60.70;;;;;;5107709;28;20045;-78
2021/10/21 13:56:12;;;;;;;;;;;18.50;60.20;;;;;;5104438;28;19908;-79
2021/10/21 13:58:41;;;;;;;;;;;18.20;59.40;;;;;;5099313;28;20263;-76
2021/10/21 14:01:07;;;;;;;;;;;17.90;59.40;;;;;;5093811;28;19920;-78
2021/10/21 14:03:32;;;;;;;;;;;17.50;59.70;;;;;;5090282;28;19908;-79
2021/10/21 14:05:58;;;;;;;;;;;17.30;59.90;;;;;;5098718;28;19976;-76
2021/10/21 14:08:24;;;;;;;;;;;17.10;59.80;;;;;;5103529;28;19914;-77
2021/10/21 14:10:51;;;;;;;;;;;17.00;60.00;;;;;;5099379;28;20003;-77
2021/10/21 14:13:17;;;;;;;;;;;16.90;60.40;;;;;;5106320;28;19904;-80
2021/10/21 14:15:42;;;;;;;;;;;16.90;60.60;;;;;;5110975;28;19994;-79
2021/10/21 14:18:10;;;;;;;;;;;16.80;60.00;;;;;;5091276;28;19964;-78
2021/10/21 14:20:36;;;;;;;;;;;16.70;60.30;;;;;;5097671;28;19911;-76
2021/10/21 14:23:02;;;;;;;;;;;16.60;60.30;;;;;;5104443;28;20311;-77
2021/10/21 14:25:27;;;;;;;;;;;16.50;60.20;;;;;;5104485;28;19907;-79
2021/10/21 14:27:53;;;;;;;;;;;16.40;60.30;;;;;;5089860;28;19957;-75